Time;durP1;ratioP1;P1;durP2;ratioP2;P2;SDS_P1;SDS_P2;PMS_P1;PMS_P2;Temp;Humidity;BMP_temperature;BMP_pressure;BME280_temperature;BME280_humidity;BME280_pressure;Samples;Min_cycle;Max_cycle;Signal;HPM_P1;HPM_P2
2022/03/31 00:00:23;;;;;;;8.88;5.13;;;5.50;66.40;;;;;;4999515;28;20034;-64
2022/03/31 00:02:49;;;;;;;8.68;5.38;;;5.30;66.60;;;;;;4994509;28;20053;-64
2022/03/31 00:05:14;;;;;;;9.90;5.53;;;5.30;66.40;;;;;;5007239;28;20068;-64
2022/03/31 00:07:54;;;;;;;9.43;5.82;;;5.30;66.50;;;;;;4995091;28;20034;-64
2022/03/31 00:10:31;;;;;;;9.10;5.53;;;5.20;66.50;;;;;;4993726;28;20129;-64
2022/03/31 00:12:59;;;;;;;10.95;5.95;;;5.20;66.80;;;;;;4996325;28;20035;-64
2022/03/31 00:15:26;;;;;;;8.77;5.60;;;5.20;66.80;;;;;;5012772;28;20033;-64
2022/03/31 00:17:52;;;;;;;10.20;6.18;;;5.20;66.70;;;;;;5009544;28;20601;-64
2022/03/31 00:20:18;;;;;;;9.25;5.00;;;5.10;66.80;;;;;;4997593;28;20478;-64
2022/03/31 00:22:43;;;;;;;11.30;5.22;;;5.10;66.60;;;;;;4996073;28;20037;-63
2022/03/31 00:25:11;;;;;;;7.50;4.72;;;5.10;66.40;;;;;;5012577;28;20061;-64
2022/03/31 00:27:37;;;;;;;11.27;5.57;;;5.10;66.50;;;;;;5003649;28;20036;-64
2022/03/31 00:30:05;;;;;;;8.23;5.00;;;5.20;66.70;;;;;;5011809;28;20573;-63
2022/03/31 00:32:31;;;;;;;8.65;5.32;;;5.10;66.70;;;;;;5005265;28;20100;-64
2022/03/31 00:34:57;;;;;;;9.68;5.70;;;5.10;66.60;;;;;;5012261;28;20029;-64
2022/03/31 00:37:22;;;;;;;9.25;5.30;;;5.10;66.60;;;;;;5008655;28;20030;-63
2022/03/31 00:39:48;;;;;;;9.73;5.78;;;5.10;66.70;;;;;;4993097;28;20269;-63
2022/03/31 00:42:15;;;;;;;7.80;5.03;;;5.00;66.60;;;;;;4993162;28;20077;-64
2022/03/31 00:44:44;;;;;;;8.82;5.20;;;5.00;66.50;;;;;;5013440;28;20083;-63
2022/03/31 00:47:09;;;;;;;9.63;5.63;;;4.90;66.60;;;;;;5008356;28;20034;-63
2022/03/31 00:49:35;;;;;;;10.43;4.68;;;4.90;66.80;;;;;;5009919;28;20117;-64
2022/03/31 00:52:01;;;;;;;8.48;5.07;;;4.80;66.70;;;;;;5010887;28;20502;-63
2022/03/31 00:54:27;;;;;;;7.53;5.38;;;4.80;66.80;;;;;;5010865;28;20121;-64
2022/03/31 00:56:55;;;;;;;12.77;6.78;;;4.80;67.00;;;;;;5009110;28;20065;-63
2022/03/31 00:59:21;;;;;;;10.63;5.68;;;4.70;66.90;;;;;;4995379;28;20054;-64
2022/03/31 01:01:48;;;;;;;10.30;5.05;;;4.70;67.10;;;;;;5004912;28;20068;-64
2022/03/31 01:04:14;;;;;;;7.90;5.00;;;4.70;66.90;;;;;;5010621;28;20045;-63
2022/03/31 01:06:44;;;;;;;10.38;5.40;;;4.60;67.00;;;;;;4998280;28;20129;-63
2022/03/31 01:09:12;;;;;;;8.20;6.18;;;4.60;66.80;;;;;;5002117;28;20076;-63
2022/03/31 01:11:38;;;;;;;9.27;5.35;;;4.60;66.80;;;;;;5011203;28;20034;-63
2022/03/31 01:14:04;;;;;;;9.25;6.00;;;4.60;67.10;;;;;;5006774;28;20561;-63
2022/03/31 01:16:30;;;;;;;10.77;5.30;;;4.50;67.00;;;;;;5010379;28;20038;-63
2022/03/31 01:18:56;;;;;;;11.63;5.40;;;4.50;67.20;;;;;;5006233;28;20021;-63
2022/03/31 01:21:22;;;;;;;9.60;5.50;;;4.40;67.20;;;;;;4995132;28;20363;-63
2022/03/31 01:23:47;;;;;;;10.10;5.20;;;4.40;67.20;;;;;;5002540;28;20099;-64
2022/03/31 01:26:13;;;;;;;8.93;5.22;;;4.40;67.30;;;;;;5009875;28;20501;-64
2022/03/31 01:28:43;;;;;;;7.90;4.93;;;4.40;67.30;;;;;;5002772;28;20442;-63
2022/03/31 01:31:09;;;;;;;8.13;4.93;;;4.30;67.40;;;;;;5009284;28;20049;-63
2022/03/31 01:33:36;;;;;;;9.88;5.35;;;4.30;67.20;;;;;;5008264;28;20032;-63
2022/03/31 01:36:04;;;;;;;7.70;4.70;;;4.30;67.20;;;;;;5009286;28;20041;-63
2022/03/31 01:38:30;;;;;;;8.82;4.60;;;4.20;67.50;;;;;;5003272;28;20026;-63
2022/03/31 01:40:56;;;;;;;8.77;5.50;;;4.30;67.50;;;;;;5010604;28;20099;-63
2022/03/31 01:43:21;;;;;;;8.95;4.82;;;4.20;67.60;;;;;;5005862;28;20548;-63
2022/03/31 01:45:52;;;;;;;7.47;4.47;;;4.20;67.60;;;;;;5007946;28;20501;-63
2022/03/31 01:48:18;;;;;;;9.40;5.03;;;4.20;67.40;;;;;;5006784;28;20084;-64
2022/03/31 01:50:44;;;;;;;6.60;4.13;;;4.20;67.40;;;;;;5009547;28;20030;-64
2022/03/31 01:53:09;;;;;;;8.15;4.72;;;4.20;67.50;;;;;;5004838;28;20026;-64
2022/03/31 01:55:36;;;;;;;8.73;4.63;;;4.20;67.40;;;;;;5009675;28;20025;-63
2022/03/31 01:58:01;;;;;;;7.50;4.90;;;4.10;67.90;;;;;;4995878;28;20030;-63
2022/03/31 02:00:27;;;;;;;8.90;4.35;;;4.10;67.80;;;;;;5010532;28;20069;-63
2022/03/31 02:02:53;;;;;;;8.93;5.22;;;4.00;68.00;;;;;;5004673;28;20038;-64
2022/03/31 02:05:18;;;;;;;8.30;4.30;;;4.00;67.90;;;;;;5010641;28;20032;-64
2022/03/31 02:07:44;;;;;;;8.45;4.43;;;4.00;68.00;;;;;;4972568;28;972860;-63
2022/03/31 02:10:12;;;;;;;8.80;5.13;;;3.90;68.00;;;;;;5011150;28;20392;-64
2022/03/31 02:12:38;;;;;;;8.25;4.63;;;3.90;68.20;;;;;;5006630;28;20038;-64
2022/03/31 02:15:04;;;;;;;11.43;4.70;;;3.80;68.40;;;;;;5010311;28;20109;-64
2022/03/31 02:17:30;;;;;;;7.63;4.57;;;3.80;68.10;;;;;;5010052;28;20037;-64
2022/03/31 02:19:56;;;;;;;8.52;4.05;;;3.80;68.30;;;;;;5005425;28;20089;-64
2022/03/31 02:22:22;;;;;;;8.95;4.40;;;3.80;68.30;;;;;;5009893;28;20121;-64
2022/03/31 02:24:48;;;;;;;11.20;5.20;;;3.70;68.20;;;;;;5007967;28;20117;-64
2022/03/31 02:27:13;;;;;;;6.97;3.80;;;3.70;69.10;;;;;;5010504;28;20081;-64
2022/03/31 02:29:39;;;;;;;7.78;4.63;;;3.60;68.40;;;;;;5000160;28;20087;-64
2022/03/31 02:32:06;;;;;;;8.13;4.47;;;3.70;68.40;;;;;;5009816;28;20025;-64
2022/03/31 02:34:31;;;;;;;9.48;5.15;;;3.60;68.70;;;;;;5004515;28;20084;-64
2022/03/31 02:36:57;;;;;;;8.80;4.68;;;3.60;68.70;;;;;;5011228;28;20072;-64
2022/03/31 02:39:23;;;;;;;14.20;5.47;;;3.50;68.80;;;;;;5006255;28;20498;-64
2022/03/31 02:41:49;;;;;;;6.75;4.38;;;3.60;69.00;;;;;;5001672;28;20045;-64
2022/03/31 02:44:16;;;;;;;8.55;4.95;;;3.50;68.60;;;;;;4995123;28;20096;-64
2022/03/31 02:46:42;;;;;;;8.95;4.15;;;3.50;68.80;;;;;;4992473;28;20029;-65
2022/03/31 02:49:08;;;;;;;8.70;4.55;;;3.40;68.80;;;;;;5008441;28;20385;-65
2022/03/31 02:51:33;;;;;;;7.32;4.07;;;3.40;69.20;;;;;;5009336;28;20056;-64
2022/03/31 02:56:43;;;;;;;10.80;4.80;;;3.30;69.20;;;;;;4994301;28;20025;-64
2022/03/31 02:59:08;;;;;;;6.82;4.00;;;3.20;69.10;;;;;;5006711;28;20693;-64
2022/03/31 03:01:34;;;;;;;9.60;4.57;;;3.20;69.10;;;;;;5010589;28;20018;-63
2022/03/31 03:04:00;;;;;;;8.07;4.35;;;3.20;69.30;;;;;;5005326;28;20060;-64
2022/03/31 03:06:26;;;;;;;9.48;4.55;;;3.20;69.10;;;;;;5014299;28;20073;-64
2022/03/31 03:08:52;;;;;;;9.43;4.80;;;3.10;69.10;;;;;;5008547;28;20785;-63
2022/03/31 03:11:20;;;;;;;6.65;3.72;;;3.10;68.90;;;;;;5014672;28;20631;-64
2022/03/31 03:13:46;;;;;;;6.57;4.03;;;3.00;68.90;;;;;;5009808;28;20041;-65
2022/03/31 03:16:12;;;;;;;9.40;4.53;;;3.00;69.10;;;;;;5012579;28;20021;-64
2022/03/31 03:18:39;;;;;;;9.35;5.15;;;3.00;69.00;;;;;;4999808;28;20486;-64
2022/03/31 03:21:07;;;;;;;6.88;4.13;;;3.00;69.00;;;;;;4994127;28;20513;-64
2022/03/31 03:23:33;;;;;;;7.53;4.28;;;3.00;69.00;;;;;;4995019;28;20129;-64
2022/03/31 03:25:59;;;;;;;7.43;4.00;;;2.90;69.20;;;;;;5005788;28;20062;-65
2022/03/31 03:28:24;;;;;;;7.75;3.97;;;2.90;69.10;;;;;;4996172;28;20540;-64
2022/03/31 03:30:50;;;;;;;7.68;4.28;;;2.80;69.30;;;;;;5005017;28;20042;-64
2022/03/31 03:33:15;;;;;;;6.13;4.20;;;2.80;69.50;;;;;;5000428;28;20026;-64
2022/03/31 03:35:41;;;;;;;11.35;4.72;;;2.70;69.50;;;;;;5006726;28;20500;-63
2022/03/31 03:38:07;;;;;;;9.93;4.00;;;2.60;69.70;;;;;;5011296;28;20026;-63
2022/03/31 03:40:33;;;;;;;5.70;3.28;;;2.60;69.70;;;;;;5006690;28;20033;-63
2022/03/31 03:42:59;;;;;;;7.75;3.72;;;2.60;69.60;;;;;;5011721;28;20072;-64
2022/03/31 03:45:25;;;;;;;7.05;4.05;;;2.60;69.50;;;;;;5007294;28;20073;-63
2022/03/31 03:47:51;;;;;;;8.05;4.05;;;2.60;69.90;;;;;;5005574;28;20504;-64
2022/03/31 03:50:17;;;;;;;7.50;3.88;;;2.60;70.00;;;;;;5013469;28;20029;-63
2022/03/31 03:52:42;;;;;;;7.28;4.00;;;2.40;69.90;;;;;;5007560;28;20389;-64
2022/03/31 03:55:09;;;;;;;8.40;4.03;;;2.40;69.50;;;;;;5012768;28;20463;-64
2022/03/31 03:57:35;;;;;;;10.05;4.20;;;2.40;69.40;;;;;;5007909;28;20030;-63
2022/03/31 04:00:00;;;;;;;8.75;3.78;;;2.50;69.80;;;;;;5012479;28;20026;-64
2022/03/31 04:02:26;;;;;;;6.13;3.40;;;2.40;69.50;;;;;;5004292;28;20481;-63
2022/03/31 04:04:52;;;;;;;6.07;3.75;;;2.40;69.90;;;;;;4999904;28;20046;-63
2022/03/31 04:07:17;;;;;;;6.22;3.40;;;2.40;69.70;;;;;;4992942;28;20093;-64
2022/03/31 04:09:43;;;;;;;5.68;4.07;;;2.40;69.90;;;;;;5000106;28;20062;-64
2022/03/31 04:12:09;;;;;;;6.70;3.78;;;2.30;70.20;;;;;;4992370;28;20026;-64
2022/03/31 04:14:35;;;;;;;6.10;3.65;;;2.30;70.10;;;;;;5000444;28;20034;-64
2022/03/31 04:17:01;;;;;;;7.68;3.75;;;2.20;70.10;;;;;;4993456;28;20030;-63
2022/03/31 04:19:26;;;;;;;10.15;3.90;;;2.30;70.10;;;;;;5002514;28;20037;-64
2022/03/31 04:21:51;;;;;;;8.40;3.55;;;2.20;70.30;;;;;;4993291;28;20470;-63
2022/03/31 04:24:17;;;;;;;4.38;3.40;;;2.20;70.10;;;;;;5001664;28;20049;-63
2022/03/31 04:26:43;;;;;;;7.85;3.45;;;2.20;70.30;;;;;;4997984;28;20019;-63
2022/03/31 04:29:10;;;;;;;9.52;4.03;;;2.10;70.00;;;;;;5003787;28;20065;-63
2022/03/31 04:31:41;;;;;;;5.93;3.05;;;2.10;70.00;;;;;;5004711;28;20397;-63
2022/03/31 04:34:08;;;;;;;5.35;3.63;;;2.20;70.00;;;;;;5001180;28;20389;-64
2022/03/31 04:36:34;;;;;;;9.65;4.00;;;2.10;70.30;;;;;;4992578;28;20041;-63
2022/03/31 04:39:00;;;;;;;12.15;3.75;;;2.10;70.20;;;;;;5006455;28;20385;-63
2022/03/31 04:41:25;;;;;;;6.40;3.92;;;2.20;70.10;;;;;;4992998;28;20478;-63
2022/03/31 04:43:51;;;;;;;5.65;3.50;;;2.10;70.20;;;;;;5003765;28;20121;-63
2022/03/31 04:46:18;;;;;;;5.50;3.35;;;2.10;70.40;;;;;;4992029;28;20034;-63
2022/03/31 04:48:44;;;;;;;8.80;3.35;;;2.10;70.70;;;;;;4999617;28;20026;-63
2022/03/31 04:51:09;;;;;;;5.60;3.20;;;2.00;70.70;;;;;;5009904;28;20112;-63
2022/03/31 04:53:35;;;;;;;4.80;3.15;;;2.00;70.60;;;;;;5002993;28;20038;-65
2022/03/31 04:56:00;;;;;;;5.45;2.78;;;2.00;70.50;;;;;;4995166;28;20022;-64
2022/03/31 04:58:26;;;;;;;7.10;3.55;;;2.00;70.50;;;;;;5001234;28;20041;-63
2022/03/31 05:00:52;;;;;;;6.55;3.60;;;1.90;70.70;;;;;;5011830;28;20033;-63
2022/03/31 05:03:17;;;;;;;6.30;3.80;;;1.90;70.80;;;;;;5009800;28;20084;-63
2022/03/31 05:05:43;;;;;;;8.20;4.05;;;1.90;70.90;;;;;;5012227;28;20061;-63
2022/03/31 05:08:08;;;;;;;7.63;4.70;;;1.90;70.90;;;;;;5005538;28;20506;-62
2022/03/31 05:10:34;;;;;;;5.97;3.53;;;1.90;71.30;;;;;;5012116;28;20022;-63
2022/03/31 05:13:00;;;;;;;6.97;3.22;;;1.90;71.00;;;;;;5007591;28;20050;-63
2022/03/31 05:15:25;;;;;;;5.75;3.13;;;1.90;71.00;;;;;;5012112;28;20034;-63
2022/03/31 05:17:51;;;;;;;6.75;3.50;;;1.90;71.00;;;;;;5008345;28;20052;-63
2022/03/31 05:20:16;;;;;;;6.03;2.63;;;1.80;72.30;;;;;;5011806;28;20469;-63
2022/03/31 05:22:42;;;;;;;6.70;2.90;;;1.80;72.00;;;;;;4995885;28;20236;-63
2022/03/31 05:25:09;;;;;;;6.88;3.35;;;1.80;72.00;;;;;;5011734;28;20034;-63
2022/03/31 05:27:48;;;;;;;6.20;3.47;;;1.80;71.90;;;;;;5010652;28;20686;-63
2022/03/31 05:30:17;;;;;;;6.90;4.00;;;1.80;72.10;;;;;;5009119;28;20040;-64
2022/03/31 05:32:42;;;;;;;5.25;3.38;;;1.80;72.00;;;;;;4993621;28;20109;-64
2022/03/31 05:35:09;;;;;;;6.32;3.40;;;1.90;72.00;;;;;;4992437;28;20080;-64
2022/03/31 05:37:35;;;;;;;5.47;3.50;;;1.90;71.60;;;;;;4993047;28;20065;-68
2022/03/31 05:40:05;;;;;;;10.80;3.78;;;1.90;71.70;;;;;;4991071;28;20062;-64
2022/03/31 05:42:32;;;;;;;6.30;3.63;;;1.90;71.60;;;;;;4993643;28;20029;-63
2022/03/31 05:44:59;;;;;;;6.55;3.53;;;1.90;71.70;;;;;;4998649;28;20034;-62
2022/03/31 05:47:25;;;;;;;5.90;3.20;;;1.90;71.90;;;;;;4995981;28;20180;-62
2022/03/31 05:49:50;;;;;;;7.32;3.30;;;1.90;71.70;;;;;;4991571;28;20113;-63
2022/03/31 05:52:16;;;;;;;6.80;3.33;;;1.90;71.80;;;;;;4992100;28;20042;-62
2022/03/31 05:54:42;;;;;;;6.93;3.53;;;1.90;71.90;;;;;;5008969;28;20038;-62
2022/03/31 05:57:08;;;;;;;7.57;3.25;;;1.90;71.90;;;;;;5000532;28;20133;-62
2022/03/31 05:59:33;;;;;;;7.07;3.40;;;1.90;72.10;;;;;;4999431;28;20133;-62
2022/03/31 06:01:59;;;;;;;6.88;3.55;;;1.90;72.00;;;;;;5004025;28;20037;-62
2022/03/31 06:04:24;;;;;;;8.13;3.85;;;1.90;71.80;;;;;;4996253;28;20042;-62
2022/03/31 06:06:50;;;;;;;8.18;3.83;;;1.90;71.90;;;;;;5003653;28;20117;-63
2022/03/31 06:09:16;;;;;;;6.38;3.00;;;2.00;71.90;;;;;;5006830;28;20513;-63
2022/03/31 06:11:43;;;;;;;7.10;3.80;;;2.00;72.00;;;;;;4996203;28;20033;-64
2022/03/31 06:14:10;;;;;;;7.53;4.03;;;2.00;71.90;;;;;;5005311;28;20038;-64
2022/03/31 06:16:35;;;;;;;7.03;3.30;;;2.10;71.60;;;;;;5002160;28;20023;-63
2022/03/31 06:19:01;;;;;;;8.15;3.33;;;2.20;71.60;;;;;;5004547;28;20103;-63
2022/03/31 06:21:26;;;;;;;5.65;3.22;;;2.20;71.60;;;;;;5010110;28;20489;-63
2022/03/31 06:23:52;;;;;;;5.43;3.58;;;2.20;71.40;;;;;;5000413;28;20030;-63
2022/03/31 06:26:18;;;;;;;7.32;3.35;;;2.20;71.20;;;;;;5000052;28;20037;-63
2022/03/31 06:28:43;;;;;;;8.52;3.60;;;2.20;71.10;;;;;;5007788;28;20497;-62
2022/03/31 06:31:09;;;;;;;7.03;3.78;;;2.20;71.10;;;;;;5004000;28;20106;-62
2022/03/31 06:33:34;;;;;;;9.43;4.28;;;2.10;71.00;;;;;;4999708;28;20113;-62
2022/03/31 06:36:00;;;;;;;11.38;3.97;;;2.20;71.40;;;;;;5003593;28;20066;-62
2022/03/31 06:38:26;;;;;;;12.65;3.58;;;2.20;71.40;;;;;;5008607;28;20037;-63
2022/03/31 06:41:06;;;;;;;6.55;3.72;;;2.20;71.70;;;;;;5014974;28;20033;-63
2022/03/31 06:43:36;;;;;;;8.00;3.72;;;2.20;71.40;;;;;;5005876;28;20124;-63
2022/03/31 06:46:03;;;;;;;7.03;4.35;;;2.20;71.70;;;;;;5013487;28;20038;-63
2022/03/31 06:48:30;;;;;;;7.05;3.28;;;2.20;71.30;;;;;;5003990;28;20109;-63
2022/03/31 06:50:56;;;;;;;5.55;3.75;;;2.30;71.40;;;;;;5010871;28;20045;-63
2022/03/31 06:53:22;;;;;;;6.97;3.90;;;2.30;71.40;;;;;;5004867;28;20041;-63
2022/03/31 06:55:48;;;;;;;7.15;3.65;;;2.40;71.50;;;;;;5031865;28;20033;-63
2022/03/31 06:58:13;;;;;;;7.20;4.57;;;2.50;71.10;;;;;;4994746;28;20056;-63
2022/03/31 07:00:39;;;;;;;8.23;4.00;;;2.50;70.90;;;;;;4995245;28;20369;-63
2022/03/31 07:03:04;;;;;;;7.55;3.85;;;2.60;70.90;;;;;;5000205;28;20385;-63
2022/03/31 07:05:30;;;;;;;7.03;3.80;;;2.70;71.20;;;;;;5014455;28;20026;-63
2022/03/31 07:07:55;;;;;;;9.18;4.90;;;2.70;70.70;;;;;;5000958;28;20056;-63
2022/03/31 07:10:31;;;;;;;8.02;4.13;;;2.80;70.40;;;;;;5013745;28;20038;-63
2022/03/31 07:13:15;;;;;;;6.75;4.07;;;2.90;70.60;;;;;;5006074;28;20694;-63
2022/03/31 07:16:01;;;;;;;9.63;4.88;;;3.00;70.00;;;;;;4996245;28;20176;-64
2022/03/31 07:18:27;;;;;;;7.78;3.95;;;3.00;69.30;;;;;;5007930;28;20129;-63
2022/03/31 07:20:53;;;;;;;10.70;4.18;;;3.00;69.10;;;;;;5007958;28;20056;-62
2022/03/31 07:23:20;;;;;;;7.93;3.97;;;3.00;69.10;;;;;;5010495;28;20030;-63
2022/03/31 07:25:45;;;;;;;6.93;4.07;;;2.90;69.00;;;;;;4999531;28;20470;-63
2022/03/31 07:28:11;;;;;;;6.82;4.38;;;3.00;69.70;;;;;;5009175;28;20048;-62
2022/03/31 07:30:36;;;;;;;7.07;4.32;;;3.00;69.20;;;;;;5009645;28;20026;-63
2022/03/31 07:33:03;;;;;;;7.30;4.25;;;3.10;69.00;;;;;;5007423;28;20033;-60
2022/03/31 07:35:32;;;;;;;8.57;5.10;;;3.10;68.80;;;;;;4999237;28;20587;-61
2022/03/31 07:37:59;;;;;;;7.50;4.50;;;3.10;68.70;;;;;;5011627;28;20034;-61
2022/03/31 07:40:25;;;;;;;6.97;4.15;;;3.10;68.80;;;;;;5000785;28;20041;-62
2022/03/31 07:42:52;;;;;;;7.97;4.28;;;3.20;68.60;;;;;;5008622;28;20026;-61
2022/03/31 07:45:19;;;;;;;7.00;3.80;;;3.30;68.50;;;;;;5003465;28;20054;-62
2022/03/31 07:47:45;;;;;;;7.43;4.65;;;3.30;68.10;;;;;;5001822;28;20033;-61
2022/03/31 07:50:12;;;;;;;7.45;3.95;;;3.40;67.60;;;;;;4993285;28;20026;-62
2022/03/31 07:52:39;;;;;;;9.52;4.18;;;3.50;67.90;;;;;;4998900;28;20026;-61
2022/03/31 07:55:06;;;;;;;7.38;4.70;;;3.60;67.80;;;;;;5002474;28;20205;-61
2022/03/31 07:57:33;;;;;;;7.80;4.47;;;3.70;67.60;;;;;;4999561;28;20404;-61
2022/03/31 07:59:59;;;;;;;7.18;3.88;;;3.80;67.20;;;;;;5006999;28;20382;-62
2022/03/31 08:02:25;;;;;;;8.20;4.78;;;3.90;67.40;;;;;;5003465;28;20030;-62
2022/03/31 08:04:51;;;;;;;7.53;4.20;;;3.90;66.60;;;;;;5002177;28;20041;-62
2022/03/31 08:07:17;;;;;;;6.75;4.03;;;4.00;66.50;;;;;;4998048;28;20058;-61
2022/03/31 08:09:42;;;;;;;7.47;4.32;;;4.00;66.20;;;;;;5004041;28;20026;-62
2022/03/31 08:12:08;;;;;;;7.35;3.58;;;4.10;65.90;;;;;;4999540;28;20452;-61
2022/03/31 08:14:34;;;;;;;6.55;4.32;;;4.10;65.90;;;;;;5005070;28;20053;-61
2022/03/31 08:16:59;;;;;;;9.60;4.10;;;4.20;65.60;;;;;;4999160;28;20121;-62
2022/03/31 08:19:27;;;;;;;6.90;3.92;;;4.20;65.70;;;;;;4995462;28;20030;-61
2022/03/31 08:21:53;;;;;;;9.20;3.95;;;4.40;66.00;;;;;;4992740;28;20065;-62
2022/03/31 08:24:18;;;;;;;10.68;4.80;;;4.50;65.70;;;;;;5006713;28;20481;-61
2022/03/31 08:26:46;;;;;;;6.25;4.00;;;4.60;65.90;;;;;;5007110;28;20466;-61
2022/03/31 08:29:11;;;;;;;8.85;4.40;;;4.80;65.00;;;;;;5009708;28;20498;-61
2022/03/31 08:31:38;;;;;;;9.57;4.50;;;4.90;65.20;;;;;;5007953;28;20037;-62
2022/03/31 08:34:05;;;;;;;8.50;4.70;;;5.00;64.30;;;;;;4998348;28;20038;-62
2022/03/31 08:36:31;;;;;;;6.63;3.80;;;5.00;63.50;;;;;;5006010;28;20022;-62
2022/03/31 08:38:57;;;;;;;9.43;4.70;;;5.10;64.00;;;;;;5005137;28;20041;-62
2022/03/31 08:41:25;;;;;;;10.90;4.53;;;5.20;64.00;;;;;;5004001;28;20026;-62
2022/03/31 08:43:51;;;;;;;10.05;4.22;;;5.30;63.70;;;;;;5005215;28;20497;-61
2022/03/31 08:46:18;;;;;;;9.55;4.50;;;5.40;63.30;;;;;;5005146;28;20033;-62
2022/03/31 08:48:44;;;;;;;11.35;4.70;;;5.40;62.60;;;;;;5006434;28;20080;-61
2022/03/31 08:51:10;;;;;;;11.52;4.43;;;5.50;62.70;;;;;;5007657;28;20456;-61
2022/03/31 08:53:36;;;;;;;8.18;4.30;;;5.50;62.30;;;;;;5003249;28;20030;-62
2022/03/31 08:56:02;;;;;;;8.02;4.38;;;5.40;62.10;;;;;;5001252;28;20468;-60
2022/03/31 08:58:28;;;;;;;12.95;5.22;;;5.50;62.50;;;;;;4999935;28;20163;-62
2022/03/31 09:00:54;;;;;;;8.50;4.68;;;5.50;62.00;;;;;;5008641;28;20097;-61
2022/03/31 09:03:20;;;;;;;13.98;5.55;;;5.60;61.60;;;;;;5007209;28;20030;-61
2022/03/31 09:05:51;;;;;;;11.73;4.38;;;5.60;62.00;;;;;;5006226;28;20130;-61
2022/03/31 09:08:17;;;;;;;7.30;5.07;;;5.70;62.50;;;;;;5005984;28;20452;-61
2022/03/31 09:10:49;;;;;;;7.80;4.50;;;5.80;62.70;;;;;;5003229;28;20029;-61
2022/03/31 09:13:20;;;;;;;8.18;4.45;;;5.90;62.50;;;;;;5006875;28;20125;-61
2022/03/31 09:15:58;;;;;;;8.13;5.13;;;6.00;62.10;;;;;;5006364;28;20038;-61
2022/03/31 09:18:26;;;;;;;7.28;4.57;;;6.00;61.60;;;;;;4995066;28;20022;-61
2022/03/31 09:20:55;;;;;;;6.68;4.22;;;6.00;62.20;;;;;;4999621;28;20121;-62
2022/03/31 09:23:23;;;;;;;6.38;4.28;;;6.10;62.30;;;;;;4997639;28;20366;-62
2022/03/31 09:25:50;;;;;;;8.65;4.95;;;6.20;62.00;;;;;;5009934;28;20030;-62
2022/03/31 09:28:21;;;;;;;9.05;4.95;;;6.30;61.90;;;;;;5002780;28;20042;-61
2022/03/31 09:30:48;;;;;;;7.35;4.10;;;6.30;61.80;;;;;;4993407;28;20030;-62
2022/03/31 09:33:56;;;;;;;6.07;4.32;;;6.40;61.90;;;;;;4997044;28;20038;-61
2022/03/31 09:36:23;;;;;;;8.48;4.50;;;6.50;62.00;;;;;;5007433;28;20030;-61
2022/03/31 09:38:54;;;;;;;8.82;4.60;;;6.50;61.70;;;;;;5007265;28;20060;-61
2022/03/31 09:41:31;;;;;;;8.77;4.85;;;6.50;60.70;;;;;;5005345;28;20038;-62
2022/03/31 09:43:59;;;;;;;8.32;4.22;;;6.60;60.90;;;;;;5007364;28;20038;-61
2022/03/31 09:46:33;;;;;;;9.95;4.88;;;6.60;60.30;;;;;;5011842;28;20382;-61
2022/03/31 09:49:09;;;;;;;7.93;4.45;;;6.60;60.40;;;;;;5002639;28;20037;-62
2022/03/31 09:51:35;;;;;;;7.18;4.63;;;6.70;60.80;;;;;;5008237;28;20425;-62
2022/03/31 09:54:01;;;;;;;9.68;4.80;;;6.80;60.60;;;;;;5008995;28;20026;-63
2022/03/31 09:56:26;;;;;;;6.18;4.43;;;6.80;60.90;;;;;;5006845;28;20057;-61
2022/03/31 09:58:56;;;;;;;11.40;5.65;;;6.80;61.00;;;;;;5008260;28;20510;-61
2022/03/31 10:01:22;;;;;;;11.60;5.20;;;6.80;60.40;;;;;;5006105;28;20073;-62
2022/03/31 10:03:49;;;;;;;7.82;4.82;;;6.80;60.70;;;;;;5008228;28;20064;-62
2022/03/31 10:06:16;;;;;;;12.05;5.10;;;6.80;60.70;;;;;;5009737;28;20461;-61
2022/03/31 10:08:44;;;;;;;9.15;6.18;;;6.80;60.50;;;;;;5008563;28;20061;-62
2022/03/31 10:11:11;;;;;;;7.20;4.75;;;6.90;60.20;;;;;;5006230;28;20030;-61
2022/03/31 10:13:53;;;;;;;8.57;5.03;;;6.90;60.30;;;;;;4999840;28;20038;-62
2022/03/31 10:16:28;;;;;;;10.27;4.43;;;7.00;60.50;;;;;;5004895;28;20529;-62
2022/03/31 10:18:54;;;;;;;7.07;4.90;;;7.10;60.70;;;;;;5015046;28;20076;-62
2022/03/31 10:21:27;;;;;;;10.35;4.97;;;7.30;60.80;;;;;;5013701;28;20034;-63
2022/03/31 10:26:38;;;;;;;11.15;4.82;;;7.50;61.00;;;;;;5010195;28;20548;-62
2022/03/31 10:29:12;;;;;;;8.75;4.82;;;7.60;60.10;;;;;;5012524;28;20038;-62
2022/03/31 10:31:40;;;;;;;7.28;4.82;;;7.80;60.00;;;;;;5006597;28;20541;-62
2022/03/31 10:34:07;;;;;;;10.80;5.00;;;7.90;59.90;;;;;;4999532;28;20518;-62
2022/03/31 10:36:39;;;;;;;7.00;4.50;;;8.00;59.20;;;;;;5011792;28;20099;-63
2022/03/31 10:39:14;;;;;;;6.30;4.28;;;8.10;59.10;;;;;;5014102;28;20033;-63
2022/03/31 10:41:42;;;;;;;10.07;4.35;;;8.10;59.00;;;;;;5012573;28;20041;-62
2022/03/31 10:44:14;;;;;;;9.57;5.28;;;8.10;58.60;;;;;;5011267;28;20409;-64
2022/03/31 10:46:41;;;;;;;8.85;4.97;;;8.20;58.50;;;;;;5019843;28;20052;-63
2022/03/31 10:49:19;;;;;;;10.98;4.80;;;8.30;58.50;;;;;;5011362;28;20033;-63
2022/03/31 10:51:46;;;;;;;10.32;5.07;;;8.40;58.20;;;;;;5011750;28;20034;-62
2022/03/31 10:54:24;;;;;;;5.95;3.80;;;8.40;57.50;;;;;;5010369;28;20120;-62
2022/03/31 10:57:13;;;;;;;6.35;4.40;;;8.50;58.10;;;;;;5010546;28;20030;-62
2022/03/31 10:59:41;;;;;;;11.23;4.60;;;8.50;57.80;;;;;;5004695;28;20124;-63
2022/03/31 11:02:15;;;;;;;9.50;4.88;;;8.60;57.10;;;;;;5007565;28;20326;-63
2022/03/31 11:05:03;;;;;;;10.50;5.75;;;8.50;56.60;;;;;;5012865;28;20409;-63
2022/03/31 11:07:29;;;;;;;9.48;4.93;;;8.40;56.30;;;;;;4994578;28;20453;-63
2022/03/31 11:10:08;;;;;;;9.52;5.38;;;8.30;56.70;;;;;;5013635;28;20068;-63
2022/03/31 11:12:35;;;;;;;9.63;5.25;;;8.30;57.00;;;;;;5010644;28;20037;-63
2022/03/31 11:15:05;;;;;;;9.32;5.38;;;8.40;57.20;;;;;;5013764;28;20033;-63
2022/03/31 11:17:31;;;;;;;9.95;5.35;;;8.40;57.20;;;;;;5010878;28;20030;-63
2022/03/31 11:19:58;;;;;;;9.13;4.72;;;8.50;56.50;;;;;;5012245;28;20144;-63
2022/03/31 11:22:27;;;;;;;9.70;5.30;;;8.50;56.50;;;;;;5011794;28;20045;-63
2022/03/31 11:24:54;;;;;;;11.93;4.88;;;8.50;56.40;;;;;;4999124;28;20037;-64
2022/03/31 11:27:49;;;;;;;6.75;4.88;;;8.50;56.10;;;;;;5009908;28;20053;-63
2022/03/31 11:30:20;;;;;;;7.57;4.80;;;8.50;56.50;;;;;;5004701;28;20096;-63
2022/03/31 11:32:48;;;;;;;10.90;5.20;;;8.60;56.10;;;;;;5010222;28;20033;-64
2022/03/31 11:35:18;;;;;;;12.52;5.25;;;8.40;56.30;;;;;;5013067;28;20026;-63
2022/03/31 11:37:49;;;;;;;10.40;5.30;;;8.40;56.40;;;;;;5009833;28;20026;-64
2022/03/31 11:40:23;;;;;;;7.20;4.75;;;8.40;56.90;;;;;;5011501;28;20026;-63
2022/03/31 11:42:52;;;;;;;7.13;4.63;;;8.50;57.00;;;;;;5007164;28;20080;-62
2022/03/31 11:45:31;;;;;;;11.65;5.15;;;8.50;57.00;;;;;;5013579;28;20307;-62
2022/03/31 11:47:58;;;;;;;7.85;4.43;;;8.60;56.20;;;;;;5010977;28;20500;-64
2022/03/31 11:50:25;;;;;;;9.70;5.18;;;8.60;56.40;;;;;;5005477;28;20025;-64
2022/03/31 11:52:52;;;;;;;10.32;5.13;;;8.60;56.50;;;;;;4994566;28;20559;-63
2022/03/31 11:55:18;;;;;;;8.35;5.75;;;8.60;56.50;;;;;;5014535;28;20048;-64
2022/03/31 11:57:51;;;;;;;9.95;5.65;;;8.70;56.80;;;;;;5013635;28;20025;-63
2022/03/31 12:00:17;;;;;;;7.55;4.75;;;8.80;56.70;;;;;;5006840;28;20041;-63
2022/03/31 12:02:54;;;;;;;11.07;4.72;;;8.70;56.50;;;;;;5008086;28;20434;-62
2022/03/31 12:05:21;;;;;;;10.23;5.05;;;8.70;56.40;;;;;;4994126;28;20045;-62
2022/03/31 12:07:48;;;;;;;10.07;5.43;;;8.80;56.60;;;;;;5006342;28;20517;-66
2022/03/31 12:10:14;;;;;;;8.13;4.68;;;8.80;56.60;;;;;;5003674;28;20130;-62
2022/03/31 12:12:51;;;;;;;8.43;4.70;;;9.00;58.20;;;;;;4999151;28;20108;-64
2022/03/31 12:15:26;;;;;;;7.70;4.43;;;9.20;56.60;;;;;;5005819;28;20113;-65
2022/03/31 12:18:18;;;;;;;7.88;5.07;;;9.30;56.50;;;;;;5006745;28;20550;-64
2022/03/31 12:20:49;;;;;;;8.18;4.85;;;9.40;56.40;;;;;;5010699;28;20038;-65
2022/03/31 12:23:24;;;;;;;7.32;4.90;;;9.50;55.50;;;;;;5003131;28;20501;-63
2022/03/31 12:25:50;;;;;;;9.63;4.90;;;9.40;54.80;;;;;;5007713;28;20077;-64
2022/03/31 12:28:23;;;;;;;9.68;5.10;;;9.40;55.00;;;;;;5003863;28;20044;-63
2022/03/31 12:30:53;;;;;;;9.70;5.32;;;9.40;54.50;;;;;;5009486;28;20026;-64
2022/03/31 12:33:32;;;;;;;9.77;4.70;;;9.20;54.70;;;;;;5010134;28;20032;-63
2022/03/31 12:36:02;;;;;;;8.63;4.78;;;9.10;54.90;;;;;;5002450;28;20113;-64
2022/03/31 12:38:45;;;;;;;7.75;4.88;;;9.10;55.50;;;;;;5005850;28;20097;-64
2022/03/31 12:41:23;;;;;;;16.05;5.70;;;9.00;55.70;;;;;;5005358;28;20030;-63
2022/03/31 12:44:08;;;;;;;9.38;5.80;;;9.10;55.70;;;;;;4995904;28;20049;-64
2022/03/31 12:46:36;;;;;;;16.48;6.30;;;9.20;55.70;;;;;;4999731;28;20042;-64
2022/03/31 12:49:10;;;;;;;7.32;4.95;;;9.30;55.50;;;;;;5005763;28;20030;-66
2022/03/31 12:52:03;;;;;;;8.07;4.87;;;9.40;55.10;;;;;;5008305;28;20068;-62
2022/03/31 12:54:32;;;;;;;9.10;4.68;;;9.60;55.20;;;;;;4993087;28;20406;-65
2022/03/31 12:57:00;;;;;;;9.98;4.60;;;9.80;55.30;;;;;;5004106;28;20084;-64
2022/03/31 12:59:30;;;;;;;10.98;5.35;;;9.80;54.20;;;;;;5004374;28;20030;-66
2022/03/31 13:01:58;;;;;;;6.75;4.18;;;9.80;53.20;;;;;;5009199;28;20376;-66
2022/03/31 13:04:24;;;;;;;9.40;4.72;;;9.80;53.30;;;;;;5003850;28;20038;-64